createdAt,value
2016-11-28T00:00:34.664Z,1027.05
2016-11-28T00:01:44.670Z,1027.06
2016-11-28T00:02:54.694Z,1027.09
2016-11-28T00:04:04.788Z,1027.11
2016-11-28T00:05:13.875Z,1027.12
2016-11-28T00:06:23.880Z,1027.13
2016-11-28T00:07:33.883Z,1027.11
2016-11-28T00:08:43.572Z,1027.14
2016-11-28T00:09:53.267Z,1027.17
2016-11-28T00:11:03.279Z,1027.13
2016-11-28T00:12:12.691Z,1027.18
2016-11-28T00:13:22.740Z,1027.17
2016-11-28T00:14:33.140Z,1027.17
2016-11-28T00:15:43.159Z,1027.18
2016-11-28T00:16:52.900Z,1027.13
2016-11-28T00:18:03.237Z,1027.16
2016-11-28T00:19:13.615Z,1027.17
2016-11-28T00:20:23.623Z,1027.18
2016-11-28T00:21:33.634Z,1027.2
2016-11-28T00:22:43.946Z,1027.22
2016-11-28T00:23:53.321Z,1027.22
2016-11-28T00:25:03.341Z,1027.23
2016-11-28T00:26:13.437Z,1027.25
2016-11-28T00:27:23.804Z,1027.29
2016-11-28T00:28:33.182Z,1027.3
2016-11-28T00:29:43.510Z,1027.28
2016-11-28T00:30:53.397Z,1027.36
2016-11-28T00:32:03.720Z,1027.33
2016-11-28T00:33:13.482Z,1027.33
2016-11-28T00:34:23.481Z,1027.32
2016-11-28T00:35:33.501Z,1027.32
2016-11-28T00:36:43.834Z,1027.35
2016-11-28T00:37:53.862Z,1027.27
2016-11-28T00:39:03.572Z,1027.31
2016-11-28T00:40:13.892Z,1027.32
2016-11-28T00:41:23.612Z,1027.36
2016-11-28T00:42:33.671Z,1027.39
2016-11-28T00:43:43.810Z,1027.36
2016-11-28T00:44:53.833Z,1027.36
2016-11-28T00:46:03.542Z,1027.32
2016-11-28T00:47:13.581Z,1027.33
2016-11-28T00:48:23.900Z,1027.37
2016-11-28T00:49:33.916Z,1027.37
2016-11-28T00:50:43.952Z,1027.36
2016-11-28T00:51:54.100Z,1027.39
2016-11-28T00:53:04.425Z,1027.38
2016-11-28T00:54:13.834Z,1027.38
2016-11-28T00:55:23.836Z,1027.42
2016-11-28T00:56:33.861Z,1027.44
2016-11-28T00:57:44.162Z,1027.48
2016-11-28T00:58:54.159Z,1027.5
2016-11-28T01:00:04.210Z,1027.5
2016-11-28T01:01:13.600Z,1027.5
2016-11-28T01:02:23.301Z,1027.53
2016-11-28T01:03:32.790Z,1027.52
2016-11-28T01:04:42.867Z,1027.58
2016-11-28T01:05:52.344Z,1027.56
2016-11-28T01:07:02.460Z,1027.54
2016-11-28T01:08:12.169Z,1027.54
2016-11-28T01:09:21.619Z,1027.56
2016-11-28T01:10:31.912Z,1027.57
2016-11-28T01:11:41.910Z,1027.59
2016-11-28T01:12:51.928Z,1027.61
2016-11-28T01:14:01.698Z,1027.62
2016-11-28T01:15:11.796Z,1027.59
2016-11-28T01:16:20.870Z,1027.62
2016-11-28T01:17:31.195Z,1027.64
2016-11-28T01:18:41.498Z,1027.65
2016-11-28T01:19:51.586Z,1027.66
2016-11-28T01:21:00.971Z,1027.64
2016-11-28T01:22:11.283Z,1027.67
2016-11-28T01:23:20.686Z,1027.65
2016-11-28T01:24:30.687Z,1027.67
2016-11-28T01:25:40.075Z,1027.7
2016-11-28T01:26:50.387Z,1027.72
2016-11-28T01:27:59.781Z,1027.71
2016-11-28T01:29:09.846Z,1027.74
2016-11-28T01:30:20.187Z,1027.77
2016-11-28T01:31:30.512Z,1027.79
2016-11-28T01:32:40.635Z,1027.78
2016-11-28T01:33:50.667Z,1027.81
2016-11-28T01:35:00.126Z,1027.8
2016-11-28T01:36:09.539Z,1027.82
2016-11-28T01:37:19.284Z,1027.82
2016-11-28T01:38:29.617Z,1027.86
2016-11-28T01:39:39.007Z,1027.89
2016-11-28T01:40:49.012Z,1027.83
2016-11-28T01:41:58.717Z,1027.83
2016-11-28T01:43:08.784Z,1027.88
2016-11-28T01:44:18.513Z,1027.91
2016-11-28T01:45:28.561Z,1027.86
2016-11-28T01:46:38.281Z,1027.88
2016-11-28T01:47:48.025Z,1027.86
2016-11-28T01:48:58.048Z,1027.88
2016-11-28T01:50:08.393Z,1027.9
2016-11-28T01:51:18.121Z,1027.87
2016-11-28T01:52:28.131Z,1027.87
2016-11-28T01:53:38.466Z,1027.88
2016-11-28T01:54:48.165Z,1027.89
2016-11-28T01:55:57.566Z,1027.86
2016-11-28T01:57:07.321Z,1027.87
2016-11-28T01:58:17.039Z,1027.87
2016-11-28T01:59:26.836Z,1027.9
2016-11-28T02:00:36.604Z,1027.91
2016-11-28T02:01:46.615Z,1027.87
2016-11-28T02:02:56.084Z,1027.9
2016-11-28T02:04:06.404Z,1027.92
2016-11-28T02:05:16.098Z,1027.96
2016-11-28T02:06:25.865Z,1027.94
2016-11-28T02:07:36.173Z,1027.96
2016-11-28T02:08:46.543Z,1028
2016-11-28T02:09:56.063Z,1028
2016-11-28T02:11:06.119Z,1027.98
2016-11-28T02:12:16.143Z,1028
2016-11-28T02:13:26.266Z,1028.01
2016-11-28T02:14:36.081Z,1028.03
2016-11-28T02:15:46.393Z,1028.03
2016-11-28T02:16:56.391Z,1028.04
2016-11-28T02:18:06.418Z,1028.07
2016-11-28T02:19:16.521Z,1028.06
2016-11-28T02:20:26.714Z,1028.1
2016-11-28T02:21:36.410Z,1028.07
2016-11-28T02:22:46.536Z,1028.07
2016-11-28T02:23:56.897Z,1028.09
2016-11-28T02:25:07.012Z,1028.1
2016-11-28T02:26:16.716Z,1028.14
2016-11-28T02:27:26.788Z,1028.14
2016-11-28T02:28:36.843Z,1028.15
2016-11-28T02:29:47.366Z,1028.18
2016-11-28T02:30:57.379Z,1028.17
2016-11-28T02:32:07.186Z,1028.21
2016-11-28T02:33:17.177Z,1028.17
2016-11-28T02:34:27.608Z,1028.26
2016-11-28T02:35:37.622Z,1028.2
2016-11-28T02:36:47.654Z,1028.18
2016-11-28T02:37:57.699Z,1028.2
2016-11-28T02:39:07.409Z,1028.21
2016-11-28T02:40:17.478Z,1028.19
2016-11-28T02:41:27.929Z,1028.21
2016-11-28T02:42:37.937Z,1028.2
2016-11-28T02:43:47.635Z,1028.2
2016-11-28T02:44:57.350Z,1028.18
2016-11-28T02:46:06.742Z,1028.23
2016-11-28T02:47:16.425Z,1028.22
2016-11-28T02:48:26.457Z,1028.25
2016-11-28T02:49:35.905Z,1028.25
2016-11-28T02:50:45.990Z,1028.26
2016-11-28T02:51:56.103Z,1028.25
2016-11-28T02:53:05.488Z,1028.27
2016-11-28T02:54:15.596Z,1028.3
2016-11-28T02:55:25.713Z,1028.31
2016-11-28T02:56:35.758Z,1028.3
2016-11-28T02:57:45.451Z,1028.32
2016-11-28T02:58:55.444Z,1028.37
2016-11-28T03:00:05.163Z,1028.32
2016-11-28T03:01:15.187Z,1028.36
2016-11-28T03:02:25.741Z,1028.36
2016-11-28T03:03:35.752Z,1028.31
2016-11-28T03:04:45.771Z,1028.35
2016-11-28T03:05:55.508Z,1028.41
2016-11-28T03:07:05.832Z,1028.4
2016-11-28T03:08:15.538Z,1028.42
2016-11-28T03:09:25.570Z,1028.45
2016-11-28T03:10:35.637Z,1028.45
2016-11-28T03:11:45.369Z,1028.45
2016-11-28T03:12:55.797Z,1028.44
2016-11-28T03:14:06.096Z,1028.45
2016-11-28T03:15:15.784Z,1028.45
2016-11-28T03:16:25.168Z,1028.45
2016-11-28T03:17:35.286Z,1028.45
2016-11-28T03:18:45.323Z,1028.45
2016-11-28T03:19:55.641Z,1028.47
2016-11-28T03:21:05.979Z,1028.49
2016-11-28T03:22:15.718Z,1028.5
2016-11-28T03:23:25.476Z,1028.52
2016-11-28T03:24:35.190Z,1028.54
2016-11-28T03:25:44.902Z,1028.52
2016-11-28T03:26:55.235Z,1028.53
2016-11-28T03:28:05.030Z,1028.56
2016-11-28T03:29:15.054Z,1028.57
2016-11-28T03:30:25.219Z,1028.61
2016-11-28T03:31:35.272Z,1028.6
2016-11-28T03:32:45.287Z,1028.6
2016-11-28T03:33:54.993Z,1028.64
2016-11-28T03:35:05.006Z,1028.63
2016-11-28T03:36:14.420Z,1028.61
2016-11-28T03:37:24.118Z,1028.64
2016-11-28T03:38:33.497Z,1028.61
2016-11-28T03:39:43.235Z,1028.62
2016-11-28T03:40:53.377Z,1028.62
2016-11-28T03:42:03.388Z,1028.62
2016-11-28T03:43:13.371Z,1028.69
2016-11-28T03:44:23.366Z,1028.66
2016-11-28T03:45:33.128Z,1028.67
2016-11-28T03:46:42.979Z,1028.68
2016-11-28T03:47:53.309Z,1028.68
2016-11-28T03:49:03.030Z,1028.74
2016-11-28T03:50:13.152Z,1028.77
2016-11-28T03:51:23.329Z,1028.75
2016-11-28T03:52:32.717Z,1028.73
2016-11-28T03:53:42.806Z,1028.74
2016-11-28T03:54:53.118Z,1028.72
2016-11-28T03:56:03.147Z,1028.76
2016-11-28T03:57:13.203Z,1028.75
2016-11-28T03:58:23.683Z,1028.74
2016-11-28T03:59:33.076Z,1028.74
2016-11-28T04:00:43.206Z,1028.76
2016-11-28T04:01:53.227Z,1028.81
2016-11-28T04:03:03.048Z,1028.79
2016-11-28T04:04:12.262Z,1028.83
2016-11-28T04:05:22.288Z,1028.82
2016-11-28T04:06:32.052Z,1028.84
2016-11-28T04:07:42.059Z,1028.87
2016-11-28T04:08:51.456Z,1028.86
2016-11-28T04:10:01.496Z,1028.85
2016-11-28T04:11:11.528Z,1028.81
2016-11-28T04:12:21.225Z,1028.86
2016-11-28T04:13:31.051Z,1028.85
2016-11-28T04:14:41.225Z,1028.85
2016-11-28T04:15:51.539Z,1028.82
2016-11-28T04:17:01.227Z,1028.85
2016-11-28T04:18:10.648Z,1028.84
2016-11-28T04:19:20.395Z,1028.87
2016-11-28T04:20:30.449Z,1028.85
2016-11-28T04:21:40.457Z,1028.84
2016-11-28T04:22:50.790Z,1028.87
2016-11-28T04:24:00.813Z,1028.9
2016-11-28T04:25:10.916Z,1028.89
2016-11-28T04:26:20.617Z,1028.9
2016-11-28T04:27:30.342Z,1028.89
2016-11-28T04:28:39.748Z,1028.94
2016-11-28T04:29:49.447Z,1028.95
2016-11-28T04:30:59.770Z,1028.94
2016-11-28T04:32:09.803Z,1028.94
2016-11-28T04:33:19.820Z,1028.95
2016-11-28T04:34:29.512Z,1028.98
2016-11-28T04:35:39.494Z,1028.95
2016-11-28T04:36:48.948Z,1028.98
2016-11-28T04:37:59.905Z,1029
2016-11-28T04:39:10.073Z,1029.03
2016-11-28T04:40:19.788Z,1029.03
2016-11-28T04:41:29.217Z,1029.09
2016-11-28T04:42:40.052Z,1029.14
2016-11-28T04:43:50.404Z,1029.14
2016-11-28T04:45:00.429Z,1029.16
2016-11-28T04:46:10.442Z,1029.17
2016-11-28T04:47:20.805Z,1029.16
2016-11-28T04:48:30.203Z,1029.25
2016-11-28T04:49:39.898Z,1029.27
2016-11-28T04:50:49.886Z,1029.3
2016-11-28T04:51:59.882Z,1029.33
2016-11-28T04:53:09.992Z,1029.35
2016-11-28T04:54:20.314Z,1029.37
2016-11-28T04:55:30.717Z,1029.36
2016-11-28T04:56:40.507Z,1029.38
2016-11-28T04:57:50.500Z,1029.39
2016-11-28T04:59:00.237Z,1029.42
2016-11-28T05:00:10.249Z,1029.44
2016-11-28T05:01:19.660Z,1029.42
2016-11-28T05:02:29.789Z,1029.44
2016-11-28T05:03:39.642Z,1029.43
2016-11-28T05:04:49.185Z,1029.44
2016-11-28T05:05:58.613Z,1029.41
2016-11-28T05:07:08.102Z,1029.46
2016-11-28T05:08:18.096Z,1029.48
2016-11-28T05:09:27.796Z,1029.51
2016-11-28T05:10:37.496Z,1029.53
2016-11-28T05:11:47.805Z,1029.55
2016-11-28T05:12:58.182Z,1029.51
2016-11-28T05:14:08.234Z,1029.57
2016-11-28T05:15:18.619Z,1029.54
2016-11-28T05:16:28.704Z,1029.6
2016-11-28T05:17:37.778Z,1029.61
2016-11-28T05:18:48.115Z,1029.64
2016-11-28T05:19:57.808Z,1029.64
2016-11-28T05:21:07.953Z,1029.68
2016-11-28T05:22:17.968Z,1029.69
2016-11-28T05:23:28.042Z,1029.7
2016-11-28T05:24:37.754Z,1029.69
2016-11-28T05:25:47.488Z,1029.74
2016-11-28T05:26:57.547Z,1029.77
2016-11-28T05:28:06.616Z,1029.78
2016-11-28T05:29:16.738Z,1029.82
2016-11-28T05:30:27.178Z,1029.81
2016-11-28T05:31:37.181Z,1029.83
2016-11-28T05:32:46.333Z,1029.86
2016-11-28T05:33:56.655Z,1029.88
2016-11-28T05:35:06.367Z,1029.88
2016-11-28T05:36:16.888Z,1029.94
2016-11-28T05:37:26.589Z,1029.95
2016-11-28T05:38:36.521Z,1029.93
2016-11-28T05:39:46.991Z,1029.96
2016-11-28T05:40:57.396Z,1029.93
2016-11-28T05:42:07.435Z,1029.96
2016-11-28T05:43:17.148Z,1029.96
2016-11-28T05:44:27.216Z,1030
2016-11-28T05:45:37.058Z,1030.01
2016-11-28T05:46:47.438Z,1030
2016-11-28T05:47:57.570Z,1030.01
2016-11-28T05:49:07.628Z,1030.06
2016-11-28T05:50:17.651Z,1030.05
2016-11-28T05:51:27.388Z,1030.03
2016-11-28T05:52:37.706Z,1030.05
2016-11-28T05:53:47.860Z,1030.07
2016-11-28T05:54:57.933Z,1030.03
2016-11-28T05:56:07.674Z,1030.02
2016-11-28T05:57:17.678Z,1030.09
2016-11-28T05:58:27.420Z,1030.12
2016-11-28T05:59:37.980Z,1030.13
2016-11-28T06:00:48.001Z,1030.14
2016-11-28T06:01:57.705Z,1030.17
2016-11-28T06:03:07.509Z,1030.17
2016-11-28T06:04:17.857Z,1030.15
2016-11-28T06:05:27.630Z,1030.14
2016-11-28T06:06:37.801Z,1030.2
2016-11-28T06:07:47.840Z,1030.18
2016-11-28T06:08:57.889Z,1030.21
2016-11-28T06:10:07.912Z,1030.2
2016-11-28T06:11:18.059Z,1030.21
2016-11-28T06:12:28.422Z,1030.21
2016-11-28T06:13:38.421Z,1030.28
2016-11-28T06:14:48.419Z,1030.29
2016-11-28T06:15:58.098Z,1030.29
2016-11-28T06:17:07.509Z,1030.26
2016-11-28T06:18:17.870Z,1030.29
2016-11-28T06:19:28.226Z,1030.33
2016-11-28T06:20:38.390Z,1030.37
2016-11-28T06:21:48.407Z,1030.38
2016-11-28T06:22:58.521Z,1030.37
2016-11-28T06:24:07.909Z,1030.35
2016-11-28T06:25:17.944Z,1030.37
2016-11-28T06:26:27.336Z,1030.35
2016-11-28T06:27:37.421Z,1030.36
2016-11-28T06:28:47.218Z,1030.36
2016-11-28T06:29:57.550Z,1030.39
2016-11-28T06:31:07.960Z,1030.41
2016-11-28T06:32:18.268Z,1030.44
2016-11-28T06:33:28.321Z,1030.46
2016-11-28T06:34:38.318Z,1030.5
2016-11-28T06:35:48.369Z,1030.52
2016-11-28T06:36:58.689Z,1030.55
2016-11-28T06:38:08.077Z,1030.56
2016-11-28T06:39:17.787Z,1030.6
2016-11-28T06:40:27.910Z,1030.6
2016-11-28T06:41:38.038Z,1030.61
2016-11-28T06:42:48.075Z,1030.59
2016-11-28T06:43:58.459Z,1030.63
2016-11-28T06:45:08.179Z,1030.64
2016-11-28T06:46:18.193Z,1030.63
2016-11-28T06:47:27.902Z,1030.66
2016-11-28T06:48:38.255Z,1030.67
2016-11-28T06:49:48.680Z,1030.7
2016-11-28T06:50:58.709Z,1030.72
2016-11-28T06:52:08.421Z,1030.74
2016-11-28T06:53:18.784Z,1030.73
2016-11-28T06:54:29.115Z,1030.79
2016-11-28T06:55:38.829Z,1030.82
2016-11-28T06:56:48.579Z,1030.83
2016-11-28T06:57:58.283Z,1030.84
2016-11-28T06:59:08.097Z,1030.82
2016-11-28T07:00:18.139Z,1030.83
2016-11-28T07:01:27.834Z,1030.83
2016-11-28T07:02:37.888Z,1030.9
2016-11-28T07:03:47.959Z,1030.88
2016-11-28T07:04:57.358Z,1030.9
2016-11-28T07:06:07.739Z,1030.95
2016-11-28T07:07:18.080Z,1031.01
2016-11-28T07:08:28.196Z,1031
2016-11-28T07:09:38.179Z,1031.01
2016-11-28T07:10:48.174Z,1031.08
2016-11-28T07:11:57.580Z,1031.07
2016-11-28T07:13:07.294Z,1031.15
2016-11-28T07:14:17.612Z,1031.09
2016-11-28T07:15:27.651Z,1031.11
2016-11-28T07:16:38.428Z,1031.15
2016-11-28T07:21:37.499Z,1031.27
